sensor_id;sensor_type;location;lat;lon;timestamp;temperature;humidity
3548;DHT22;1788;49.400;11.092;2022-09-24T00:00:16;13.10;57.40
3548;DHT22;1788;49.400;11.092;2022-09-24T00:02:42;13.00;57.40
3548;DHT22;1788;49.400;11.092;2022-09-24T00:05:09;13.00;57.40
3548;DHT22;1788;49.400;11.092;2022-09-24T00:07:36;13.00;57.50
3548;DHT22;1788;49.400;11.092;2022-09-24T00:10:02;13.00;58.10
3548;DHT22;1788;49.400;11.092;2022-09-24T00:12:29;13.00;57.60
3548;DHT22;1788;49.400;11.092;2022-09-24T00:14:55;13.00;57.60
3548;DHT22;1788;49.400;11.092;2022-09-24T00:17:22;13.00;57.70
3548;DHT22;1788;49.400;11.092;2022-09-24T00:19:49;13.00;57.70
3548;DHT22;1788;49.400;11.092;2022-09-24T00:22:15;13.00;57.80
3548;DHT22;1788;49.400;11.092;2022-09-24T00:24:42;13.00;57.80
3548;DHT22;1788;49.400;11.092;2022-09-24T00:27:09;13.00;57.90
3548;DHT22;1788;49.400;11.092;2022-09-24T00:29:36;13.00;57.90
3548;DHT22;1788;49.400;11.092;2022-09-24T00:32:03;13.00;57.90
3548;DHT22;1788;49.400;11.092;2022-09-24T00:34:29;13.00;57.90
3548;DHT22;1788;49.400;11.092;2022-09-24T00:36:56;13.00;58.30
3548;DHT22;1788;49.400;11.092;2022-09-24T00:39:22;13.00;58.00
3548;DHT22;1788;49.400;11.092;2022-09-24T00:41:49;13.00;58.00
3548;DHT22;1788;49.400;11.092;2022-09-24T00:46:42;13.00;58.00
3548;DHT22;1788;49.400;11.092;2022-09-24T00:51:35;13.00;58.10
3548;DHT22;1788;49.400;11.092;2022-09-24T00:54:03;13.00;58.10
3548;DHT22;1788;49.400;11.092;2022-09-24T00:56:29;13.00;58.10
3548;DHT22;1788;49.400;11.092;2022-09-24T00:58:55;13.00;58.20
3548;DHT22;1788;49.400;11.092;2022-09-24T01:01:22;13.00;58.20
3548;DHT22;1788;49.400;11.092;2022-09-24T01:03:49;13.00;58.30
3548;DHT22;1788;49.400;11.092;2022-09-24T01:06:15;13.00;58.30
3548;DHT22;1788;49.400;11.092;2022-09-24T01:08:43;13.00;58.30
3548;DHT22;1788;49.400;11.092;2022-09-24T01:11:12;13.00;58.30
3548;DHT22;1788;49.400;11.092;2022-09-24T01:16:04;13.00;58.40
3548;DHT22;1788;49.400;11.092;2022-09-24T01:30:43;13.00;58.60
3548;DHT22;1788;49.400;11.092;2022-09-24T01:33:11;13.00;58.60
3548;DHT22;1788;49.400;11.092;2022-09-24T01:35:37;13.00;58.70
3548;DHT22;1788;49.400;11.092;2022-09-24T01:38:05;12.90;58.60
3548;DHT22;1788;49.400;11.092;2022-09-24T01:40:30;13.00;58.70
3548;DHT22;1788;49.400;11.092;2022-09-24T01:42:58;12.90;58.60
3548;DHT22;1788;49.400;11.092;2022-09-24T01:45:23;12.90;58.60
3548;DHT22;1788;49.400;11.092;2022-09-24T01:47:51;12.90;58.70
3548;DHT22;1788;49.400;11.092;2022-09-24T01:50:17;12.90;58.70
3548;DHT22;1788;49.400;11.092;2022-09-24T01:55:11;12.90;58.70
3548;DHT22;1788;49.400;11.092;2022-09-24T02:00:05;12.80;58.70
3548;DHT22;1788;49.400;11.092;2022-09-24T02:02:36;12.80;58.70
3548;DHT22;1788;49.400;11.092;2022-09-24T02:07:25;12.80;58.80
3548;DHT22;1788;49.400;11.092;2022-09-24T02:09:50;12.80;58.90
3548;DHT22;1788;49.400;11.092;2022-09-24T02:12:18;12.80;58.90
3548;DHT22;1788;49.400;11.092;2022-09-24T02:17:10;12.80;59.00
3548;DHT22;1788;49.400;11.092;2022-09-24T02:19:37;12.80;59.10
3548;DHT22;1788;49.400;11.092;2022-09-24T02:22:04;12.80;59.10
3548;DHT22;1788;49.400;11.092;2022-09-24T02:26:56;12.80;59.10
3548;DHT22;1788;49.400;11.092;2022-09-24T02:29:23;12.80;59.10
3548;DHT22;1788;49.400;11.092;2022-09-24T02:31:51;12.80;59.10
3548;DHT22;1788;49.400;11.092;2022-09-24T02:34:17;12.80;59.20
3548;DHT22;1788;49.400;11.092;2022-09-24T02:36:43;12.80;59.20
3548;DHT22;1788;49.400;11.092;2022-09-24T02:39:09;12.80;59.20
3548;DHT22;1788;49.400;11.092;2022-09-24T02:41:36;12.70;59.20
3548;DHT22;1788;49.400;11.092;2022-09-24T02:44:03;12.70;59.30
3548;DHT22;1788;49.400;11.092;2022-09-24T02:46:30;12.70;59.30
3548;DHT22;1788;49.400;11.092;2022-09-24T02:48:57;12.70;59.20
3548;DHT22;1788;49.400;11.092;2022-09-24T02:51:23;12.70;59.20
3548;DHT22;1788;49.400;11.092;2022-09-24T02:53:50;12.70;59.20
3548;DHT22;1788;49.400;11.092;2022-09-24T02:56:16;12.70;59.20
3548;DHT22;1788;49.400;11.092;2022-09-24T02:58:43;12.70;59.20
3548;DHT22;1788;49.400;11.092;2022-09-24T03:01:10;12.70;59.20
3548;DHT22;1788;49.400;11.092;2022-09-24T03:03:36;12.70;59.20
3548;DHT22;1788;49.400;11.092;2022-09-24T03:06:04;12.70;59.30
3548;DHT22;1788;49.400;11.092;2022-09-24T03:08:30;12.70;59.30
3548;DHT22;1788;49.400;11.092;2022-09-24T03:10:57;12.70;59.30
3548;DHT22;1788;49.400;11.092;2022-09-24T03:13:23;12.70;60.00
3548;DHT22;1788;49.400;11.092;2022-09-24T03:15:50;12.70;59.30
3548;DHT22;1788;49.400;11.092;2022-09-24T03:18:17;12.70;59.40
3548;DHT22;1788;49.400;11.092;2022-09-24T03:20:52;12.70;59.40
3548;DHT22;1788;49.400;11.092;2022-09-24T03:23:10;12.70;59.50
3548;DHT22;1788;49.400;11.092;2022-09-24T03:25:37;12.70;59.50
3548;DHT22;1788;49.400;11.092;2022-09-24T03:28:03;12.70;59.50
3548;DHT22;1788;49.400;11.092;2022-09-24T03:30:30;12.70;59.60
3548;DHT22;1788;49.400;11.092;2022-09-24T03:32:56;12.60;59.50
3548;DHT22;1788;49.400;11.092;2022-09-24T03:35:23;12.60;59.50
3548;DHT22;1788;49.400;11.092;2022-09-24T03:37:50;12.60;59.60
3548;DHT22;1788;49.400;11.092;2022-09-24T03:40:16;12.60;59.60
3548;DHT22;1788;49.400;11.092;2022-09-24T03:42:43;12.60;59.60
3548;DHT22;1788;49.400;11.092;2022-09-24T03:45:09;12.60;59.60
3548;DHT22;1788;49.400;11.092;2022-09-24T03:47:36;12.60;59.60
3548;DHT22;1788;49.400;11.092;2022-09-24T03:50:03;12.60;59.60
3548;DHT22;1788;49.400;11.092;2022-09-24T03:52:29;12.60;59.60
3548;DHT22;1788;49.400;11.092;2022-09-24T03:54:56;12.60;59.60
3548;DHT22;1788;49.400;11.092;2022-09-24T03:57:23;12.60;59.70
3548;DHT22;1788;49.400;11.092;2022-09-24T03:59:51;12.60;59.70
3548;DHT22;1788;49.400;11.092;2022-09-24T04:02:17;12.50;59.60
3548;DHT22;1788;49.400;11.092;2022-09-24T04:04:45;12.60;59.80
3548;DHT22;1788;49.400;11.092;2022-09-24T04:07:11;12.50;59.70
3548;DHT22;1788;49.400;11.092;2022-09-24T04:09:39;12.50;59.80
3548;DHT22;1788;49.400;11.092;2022-09-24T04:12:05;12.50;59.80
3548;DHT22;1788;49.400;11.092;2022-09-24T04:14:32;12.50;59.80
3548;DHT22;1788;49.400;11.092;2022-09-24T04:16:58;12.50;59.80
3548;DHT22;1788;49.400;11.092;2022-09-24T04:19:25;12.50;59.80
3548;DHT22;1788;49.400;11.092;2022-09-24T04:21:52;12.50;60.00
3548;DHT22;1788;49.400;11.092;2022-09-24T04:24:19;12.50;60.00
3548;DHT22;1788;49.400;11.092;2022-09-24T04:26:46;12.60;60.00
3548;DHT22;1788;49.400;11.092;2022-09-24T04:29:13;12.50;60.00
3548;DHT22;1788;49.400;11.092;2022-09-24T04:31:40;12.60;60.00
3548;DHT22;1788;49.400;11.092;2022-09-24T04:34:07;12.60;60.00
3548;DHT22;1788;49.400;11.092;2022-09-24T04:36:33;12.60;60.00
3548;DHT22;1788;49.400;11.092;2022-09-24T04:38:59;12.60;60.80
3548;DHT22;1788;49.400;11.092;2022-09-24T04:41:27;12.60;60.00
3548;DHT22;1788;49.400;11.092;2022-09-24T04:43:55;12.60;60.00
3548;DHT22;1788;49.400;11.092;2022-09-24T04:46:20;12.60;60.00
3548;DHT22;1788;49.400;11.092;2022-09-24T04:48:47;12.50;59.90
3548;DHT22;1788;49.400;11.092;2022-09-24T04:51:14;12.50;59.90
3548;DHT22;1788;49.400;11.092;2022-09-24T04:53:41;12.50;59.90
3548;DHT22;1788;49.400;11.092;2022-09-24T04:56:07;12.50;59.90
3548;DHT22;1788;49.400;11.092;2022-09-24T04:58:34;12.40;59.80
3548;DHT22;1788;49.400;11.092;2022-09-24T05:01:01;12.40;59.90
3548;DHT22;1788;49.400;11.092;2022-09-24T05:03:27;12.40;60.00
3548;DHT22;1788;49.400;11.092;2022-09-24T05:05:54;12.30;59.90
3548;DHT22;1788;49.400;11.092;2022-09-24T05:08:21;12.30;59.90
3548;DHT22;1788;49.400;11.092;2022-09-24T05:10:48;12.20;60.00
3548;DHT22;1788;49.400;11.092;2022-09-24T05:13:14;12.20;60.00
3548;DHT22;1788;49.400;11.092;2022-09-24T05:15:41;12.20;60.00
3548;DHT22;1788;49.400;11.092;2022-09-24T05:18:08;12.20;60.10
3548;DHT22;1788;49.400;11.092;2022-09-24T05:20:34;12.10;60.00
3548;DHT22;1788;49.400;11.092;2022-09-24T05:23:01;12.10;60.00
3548;DHT22;1788;49.400;11.092;2022-09-24T05:25:28;12.10;60.00
3548;DHT22;1788;49.400;11.092;2022-09-24T05:27:55;12.10;60.00
3548;DHT22;1788;49.400;11.092;2022-09-24T05:30:22;12.10;60.00
3548;DHT22;1788;49.400;11.092;2022-09-24T05:32:48;12.00;59.90
3548;DHT22;1788;49.400;11.092;2022-09-24T05:35:15;12.00;60.00
3548;DHT22;1788;49.400;11.092;2022-09-24T05:37:41;12.00;60.00
3548;DHT22;1788;49.400;11.092;2022-09-24T05:40:08;12.00;60.00
3548;DHT22;1788;49.400;11.092;2022-09-24T05:42:35;12.00;60.10
3548;DHT22;1788;49.400;11.092;2022-09-24T05:45:01;12.00;60.10
3548;DHT22;1788;49.400;11.092;2022-09-24T05:47:28;12.00;60.10
3548;DHT22;1788;49.400;11.092;2022-09-24T05:49:54;12.00;60.20
3548;DHT22;1788;49.400;11.092;2022-09-24T05:52:21;12.00;60.90
3548;DHT22;1788;49.400;11.092;2022-09-24T05:54:48;12.00;60.20
3548;DHT22;1788;49.400;11.092;2022-09-24T05:57:14;12.00;60.30
3548;DHT22;1788;49.400;11.092;2022-09-24T05:59:42;12.00;60.30
3548;DHT22;1788;49.400;11.092;2022-09-24T06:02:08;12.10;60.50
3548;DHT22;1788;49.400;11.092;2022-09-24T06:04:35;12.10;60.50
3548;DHT22;1788;49.400;11.092;2022-09-24T06:07:01;12.20;60.60
3548;DHT22;1788;49.400;11.092;2022-09-24T06:09:28;12.20;60.60
3548;DHT22;1788;49.400;11.092;2022-09-24T06:11:55;12.20;60.60
3548;DHT22;1788;49.400;11.092;2022-09-24T06:14:21;12.30;60.70
3548;DHT22;1788;49.400;11.092;2022-09-24T06:16:49;12.40;60.90
3548;DHT22;1788;49.400;11.092;2022-09-24T06:19:15;12.30;60.80
3548;DHT22;1788;49.400;11.092;2022-09-24T06:21:43;12.40;60.90
3548;DHT22;1788;49.400;11.092;2022-09-24T06:24:10;12.50;61.00
3548;DHT22;1788;49.400;11.092;2022-09-24T06:26:37;12.50;61.00
3548;DHT22;1788;49.400;11.092;2022-09-24T06:29:03;12.60;61.10
3548;DHT22;1788;49.400;11.092;2022-09-24T06:31:30;12.70;61.10
3548;DHT22;1788;49.400;11.092;2022-09-24T06:33:56;12.80;61.20
3548;DHT22;1788;49.400;11.092;2022-09-24T06:36:23;13.00;61.20
3548;DHT22;1788;49.400;11.092;2022-09-24T06:38:50;13.10;61.20
3548;DHT22;1788;49.400;11.092;2022-09-24T06:41:17;13.20;61.20
3548;DHT22;1788;49.400;11.092;2022-09-24T06:43:43;13.30;61.20
3548;DHT22;1788;49.400;11.092;2022-09-24T06:46:10;13.50;61.30
3548;DHT22;1788;49.400;11.092;2022-09-24T06:48:36;13.60;61.20
3548;DHT22;1788;49.400;11.092;2022-09-24T06:51:03;13.80;61.20
3548;DHT22;1788;49.400;11.092;2022-09-24T06:53:29;13.90;61.10
3548;DHT22;1788;49.400;11.092;2022-09-24T06:55:56;14.10;61.10
3548;DHT22;1788;49.400;11.092;2022-09-24T06:58:23;14.20;60.90
3548;DHT22;1788;49.400;11.092;2022-09-24T07:00:50;14.40;60.80
3548;DHT22;1788;49.400;11.092;2022-09-24T07:03:17;14.70;60.50
3548;DHT22;1788;49.400;11.092;2022-09-24T07:05:43;14.70;60.40
3548;DHT22;1788;49.400;11.092;2022-09-24T07:08:11;15.10;60.10
3548;DHT22;1788;49.400;11.092;2022-09-24T07:10:40;15.10;60.10
3548;DHT22;1788;49.400;11.092;2022-09-24T07:13:05;15.30;59.60
3548;DHT22;1788;49.400;11.092;2022-09-24T07:15:31;15.30;59.60
3548;DHT22;1788;49.400;11.092;2022-09-24T07:17:59;15.50;59.30
3548;DHT22;1788;49.400;11.092;2022-09-24T07:20:25;15.50;59.30
3548;DHT22;1788;49.400;11.092;2022-09-24T07:22:52;15.60;59.10
3548;DHT22;1788;49.400;11.092;2022-09-24T07:25:18;15.70;58.80
3548;DHT22;1788;49.400;11.092;2022-09-24T07:27:45;15.70;58.50
3548;DHT22;1788;49.400;11.092;2022-09-24T07:30:12;15.80;58.30
3548;DHT22;1788;49.400;11.092;2022-09-24T07:32:38;15.80;58.10
3548;DHT22;1788;49.400;11.092;2022-09-24T07:35:05;15.80;57.90
3548;DHT22;1788;49.400;11.092;2022-09-24T07:37:31;15.90;57.80
3548;DHT22;1788;49.400;11.092;2022-09-24T07:39:59;15.90;57.50
3548;DHT22;1788;49.400;11.092;2022-09-24T07:42:25;15.90;57.50
3548;DHT22;1788;49.400;11.092;2022-09-24T07:44:53;16.00;57.90
3548;DHT22;1788;49.400;11.092;2022-09-24T07:47:19;15.90;57.30
3548;DHT22;1788;49.400;11.092;2022-09-24T07:49:46;16.00;57.30
3548;DHT22;1788;49.400;11.092;2022-09-24T07:52:13;16.00;57.20
3548;DHT22;1788;49.400;11.092;2022-09-24T07:54:39;16.10;57.20
3548;DHT22;1788;49.400;11.092;2022-09-24T07:59:33;16.20;57.00
3548;DHT22;1788;49.400;11.092;2022-09-24T08:02:01;16.40;56.80
3548;DHT22;1788;49.400;11.092;2022-09-24T08:04:27;16.40;56.80
3548;DHT22;1788;49.400;11.092;2022-09-24T08:06:55;16.80;56.60
3548;DHT22;1788;49.400;11.092;2022-09-24T08:09:22;16.70;56.50
3548;DHT22;1788;49.400;11.092;2022-09-24T08:11:49;17.10;56.30
3548;DHT22;1788;49.400;11.092;2022-09-24T08:14:16;17.10;56.20
3548;DHT22;1788;49.400;11.092;2022-09-24T08:16:42;17.20;55.90
3548;DHT22;1788;49.400;11.092;2022-09-24T08:19:09;17.30;55.80
3548;DHT22;1788;49.400;11.092;2022-09-24T08:21:36;17.40;55.70
3548;DHT22;1788;49.400;11.092;2022-09-24T08:24:02;17.50;55.60
3548;DHT22;1788;49.400;11.092;2022-09-24T08:26:29;17.60;55.40
3548;DHT22;1788;49.400;11.092;2022-09-24T08:28:55;17.70;55.40
3548;DHT22;1788;49.400;11.092;2022-09-24T08:31:22;17.80;55.40
3548;DHT22;1788;49.400;11.092;2022-09-24T08:33:49;17.90;55.20
3548;DHT22;1788;49.400;11.092;2022-09-24T08:36:16;17.90;55.20
3548;DHT22;1788;49.400;11.092;2022-09-24T08:38:43;18.10;55.00
3548;DHT22;1788;49.400;11.092;2022-09-24T08:46:13;18.20;54.80
3548;DHT22;1788;49.400;11.092;2022-09-24T08:48:32;18.30;54.70
3548;DHT22;1788;49.400;11.092;2022-09-24T08:50:57;18.40;54.50
3548;DHT22;1788;49.400;11.092;2022-09-24T08:53:25;18.50;54.30
3548;DHT22;1788;49.400;11.092;2022-09-24T08:58:24;18.50;54.10
3548;DHT22;1788;49.400;11.092;2022-09-24T09:10:34;18.50;53.80
3548;DHT22;1788;49.400;11.092;2022-09-24T09:13:01;18.50;53.80
3548;DHT22;1788;49.400;11.092;2022-09-24T09:15:26;18.60;53.80
3548;DHT22;1788;49.400;11.092;2022-09-24T09:22:47;18.60;53.80
3548;DHT22;1788;49.400;11.092;2022-09-24T09:27:39;18.70;53.70
3548;DHT22;1788;49.400;11.092;2022-09-24T09:30:05;18.70;53.60
3548;DHT22;1788;49.400;11.092;2022-09-24T09:44:48;18.90;53.40
3548;DHT22;1788;49.400;11.092;2022-09-24T09:47:18;19.00;53.30
3548;DHT22;1788;49.400;11.092;2022-09-24T09:49:41;19.10;53.30
3548;DHT22;1788;49.400;11.092;2022-09-24T09:54:35;19.30;53.10
3548;DHT22;1788;49.400;11.092;2022-09-24T09:57:01;19.40;53.10
3548;DHT22;1788;49.400;11.092;2022-09-24T09:59:28;19.50;53.00
3548;DHT22;1788;49.400;11.092;2022-09-24T10:01:55;19.60;53.00
3548;DHT22;1788;49.400;11.092;2022-09-24T10:06:49;19.80;52.80
3548;DHT22;1788;49.400;11.092;2022-09-24T10:11:44;19.70;52.40
3548;DHT22;1788;49.400;11.092;2022-09-24T10:14:12;19.70;52.40
3548;DHT22;1788;49.400;11.092;2022-09-24T10:16:38;19.70;52.30
3548;DHT22;1788;49.400;11.092;2022-09-24T10:19:11;19.60;52.30
3548;DHT22;1788;49.400;11.092;2022-09-24T10:21:31;19.60;52.40
3548;DHT22;1788;49.400;11.092;2022-09-24T10:23:58;19.50;52.40
3548;DHT22;1788;49.400;11.092;2022-09-24T10:28:51;19.50;52.40
3548;DHT22;1788;49.400;11.092;2022-09-24T10:33:44;19.40;52.20
3548;DHT22;1788;49.400;11.092;2022-09-24T10:38:37;19.40;52.20
3548;DHT22;1788;49.400;11.092;2022-09-24T10:43:31;19.40;52.20
3548;DHT22;1788;49.400;11.092;2022-09-24T10:53:22;19.40;52.10
3548;DHT22;1788;49.400;11.092;2022-09-24T10:55:48;19.40;52.10
3548;DHT22;1788;49.400;11.092;2022-09-24T11:00:39;19.30;52.10
3548;DHT22;1788;49.400;11.092;2022-09-24T11:05:34;19.30;52.20
3548;DHT22;1788;49.400;11.092;2022-09-24T11:34:57;20.10;51.80
3548;DHT22;1788;49.400;11.092;2022-09-24T11:37:27;20.20;51.60
3548;DHT22;1788;49.400;11.092;2022-09-24T11:39:50;20.20;51.50
3548;DHT22;1788;49.400;11.092;2022-09-24T11:49:38;20.50;51.10
3548;DHT22;1788;49.400;11.092;2022-09-24T11:54:32;20.60;51.00
3548;DHT22;1788;49.400;11.092;2022-09-24T11:56:55;20.60;51.00
3548;DHT22;1788;49.400;11.092;2022-09-24T12:06:40;20.60;50.90
3548;DHT22;1788;49.400;11.092;2022-09-24T12:11:33;20.50;50.80
3548;DHT22;1788;49.400;11.092;2022-09-24T12:14:02;20.50;50.90
3548;DHT22;1788;49.400;11.092;2022-09-24T12:16:26;20.40;50.80
3548;DHT22;1788;49.400;11.092;2022-09-24T12:23:46;20.30;50.80
3548;DHT22;1788;49.400;11.092;2022-09-24T12:26:14;20.30;50.80
3548;DHT22;1788;49.400;11.092;2022-09-24T12:28:42;20.30;50.80
3548;DHT22;1788;49.400;11.092;2022-09-24T12:33:37;20.30;50.80
3548;DHT22;1788;49.400;11.092;2022-09-24T12:36:03;20.30;50.70
3548;DHT22;1788;49.400;11.092;2022-09-24T12:38:29;20.30;50.70
3548;DHT22;1788;49.400;11.092;2022-09-24T12:43:25;20.40;50.80
3548;DHT22;1788;49.400;11.092;2022-09-24T12:45:51;20.40;50.80
3548;DHT22;1788;49.400;11.092;2022-09-24T12:48:14;20.50;50.80
3548;DHT22;1788;49.400;11.092;2022-09-24T12:50:41;20.50;50.70
3548;DHT22;1788;49.400;11.092;2022-09-24T12:55:34;20.60;50.50
3548;DHT22;1788;49.400;11.092;2022-09-24T13:02:55;20.60;50.20
3548;DHT22;1788;49.400;11.092;2022-09-24T13:05:26;20.70;50.30
3548;DHT22;1788;49.400;11.092;2022-09-24T13:10:20;20.80;50.20
3548;DHT22;1788;49.400;11.092;2022-09-24T13:12:43;20.90;50.00
3548;DHT22;1788;49.400;11.092;2022-09-24T13:17:36;20.90;49.90
3548;DHT22;1788;49.400;11.092;2022-09-24T13:20:05;21.00;49.90
3548;DHT22;1788;49.400;11.092;2022-09-24T13:22:30;21.00;49.90
3548;DHT22;1788;49.400;11.092;2022-09-24T13:27:32;21.10;49.70
3548;DHT22;1788;49.400;11.092;2022-09-24T13:32:18;21.40;49.50
3548;DHT22;1788;49.400;11.092;2022-09-24T13:34:44;21.50;49.30
3548;DHT22;1788;49.400;11.092;2022-09-24T13:37:14;21.70;49.20
3548;DHT22;1788;49.400;11.092;2022-09-24T13:46:59;22.30;48.50
3548;DHT22;1788;49.400;11.092;2022-09-24T13:49:24;22.60;48.30
3548;DHT22;1788;49.400;11.092;2022-09-24T13:59:11;25.00;46.20
3548;DHT22;1788;49.400;11.092;2022-09-24T14:01:39;25.80;45.10
3548;DHT22;1788;49.400;11.092;2022-09-24T14:06:32;25.40;45.20
3548;DHT22;1788;49.400;11.092;2022-09-24T14:08:58;25.30;45.10
3548;DHT22;1788;49.400;11.092;2022-09-24T14:11:25;25.50;45.10
3548;DHT22;1788;49.400;11.092;2022-09-24T14:13:52;25.60;45.00
3548;DHT22;1788;49.400;11.092;2022-09-24T14:16:19;25.60;44.90
3548;DHT22;1788;49.400;11.092;2022-09-24T14:18:45;25.40;44.90
3548;DHT22;1788;49.400;11.092;2022-09-24T14:23:42;25.50;44.70
3548;DHT22;1788;49.400;11.092;2022-09-24T14:26:06;25.10;44.40
3548;DHT22;1788;49.400;11.092;2022-09-24T14:28:32;25.10;44.70
3548;DHT22;1788;49.400;11.092;2022-09-24T14:30:59;24.80;44.90
3548;DHT22;1788;49.400;11.092;2022-09-24T14:33:27;24.40;45.10
3548;DHT22;1788;49.400;11.092;2022-09-24T14:35:52;24.10;45.30
3548;DHT22;1788;49.400;11.092;2022-09-24T14:38:20;23.80;45.60
3548;DHT22;1788;49.400;11.092;2022-09-24T14:45:39;23.00;46.20
3548;DHT22;1788;49.400;11.092;2022-09-24T14:52:59;22.50;46.70
3548;DHT22;1788;49.400;11.092;2022-09-24T14:57:52;22.20;47.10
3548;DHT22;1788;49.400;11.092;2022-09-24T15:00:21;21.90;47.30
3548;DHT22;1788;49.400;11.092;2022-09-24T15:02:47;21.90;47.30
3548;DHT22;1788;49.400;11.092;2022-09-24T15:05:14;21.70;47.80
3548;DHT22;1788;49.400;11.092;2022-09-24T15:07:40;21.70;47.80
3548;DHT22;1788;49.400;11.092;2022-09-24T15:10:16;21.50;48.70
3548;DHT22;1788;49.400;11.092;2022-09-24T15:12:35;21.50;48.20
3548;DHT22;1788;49.400;11.092;2022-09-24T15:15:02;21.50;48.30
3548;DHT22;1788;49.400;11.092;2022-09-24T15:19:54;21.30;48.50
3548;DHT22;1788;49.400;11.092;2022-09-24T15:22:21;21.20;48.60
3548;DHT22;1788;49.400;11.092;2022-09-24T15:24:48;21.10;48.70
3548;DHT22;1788;49.400;11.092;2022-09-24T15:27:15;21.00;48.80
3548;DHT22;1788;49.400;11.092;2022-09-24T15:29:41;21.00;49.00
3548;DHT22;1788;49.400;11.092;2022-09-24T15:32:11;20.90;49.10
3548;DHT22;1788;49.400;11.092;2022-09-24T15:34:34;20.80;49.20
3548;DHT22;1788;49.400;11.092;2022-09-24T15:37:01;20.80;49.30
3548;DHT22;1788;49.400;11.092;2022-09-24T15:39:27;20.70;49.30
3548;DHT22;1788;49.400;11.092;2022-09-24T15:41:55;20.60;49.70
3548;DHT22;1788;49.400;11.092;2022-09-24T15:44:22;20.60;49.70
3548;DHT22;1788;49.400;11.092;2022-09-24T15:46:49;20.50;51.30
3548;DHT22;1788;49.400;11.092;2022-09-24T15:49:16;20.50;50.80
3548;DHT22;1788;49.400;11.092;2022-09-24T15:51:43;20.50;51.30
3548;DHT22;1788;49.400;11.092;2022-09-24T15:54:09;20.40;52.20
3548;DHT22;1788;49.400;11.092;2022-09-24T15:56:36;20.40;52.00
3548;DHT22;1788;49.400;11.092;2022-09-24T15:59:07;20.30;52.30
3548;DHT22;1788;49.400;11.092;2022-09-24T16:01:29;20.20;52.70
3548;DHT22;1788;49.400;11.092;2022-09-24T16:03:56;20.10;53.00
3548;DHT22;1788;49.400;11.092;2022-09-24T16:06:22;20.10;53.30
3548;DHT22;1788;49.400;11.092;2022-09-24T16:08:50;19.90;53.80
3548;DHT22;1788;49.400;11.092;2022-09-24T16:11:16;19.90;53.80
3548;DHT22;1788;49.400;11.092;2022-09-24T16:13:43;19.80;53.90
3548;DHT22;1788;49.400;11.092;2022-09-24T16:16:10;19.70;54.10
3548;DHT22;1788;49.400;11.092;2022-09-24T16:18:36;19.60;54.30
3548;DHT22;1788;49.400;11.092;2022-09-24T16:21:04;19.60;54.60
3548;DHT22;1788;49.400;11.092;2022-09-24T16:23:29;19.50;54.90
3548;DHT22;1788;49.400;11.092;2022-09-24T16:25:57;19.50;55.30
3548;DHT22;1788;49.400;11.092;2022-09-24T16:28:23;19.40;55.50
3548;DHT22;1788;49.400;11.092;2022-09-24T16:30:49;19.40;55.70
3548;DHT22;1788;49.400;11.092;2022-09-24T16:33:17;19.30;56.10
3548;DHT22;1788;49.400;11.092;2022-09-24T16:35:43;19.30;56.10
3548;DHT22;1788;49.400;11.092;2022-09-24T16:38:10;19.30;56.10
3548;DHT22;1788;49.400;11.092;2022-09-24T16:40:36;19.20;56.20
3548;DHT22;1788;49.400;11.092;2022-09-24T16:43:03;19.10;56.30
3548;DHT22;1788;49.400;11.092;2022-09-24T16:45:30;19.00;56.40
3548;DHT22;1788;49.400;11.092;2022-09-24T16:47:57;18.90;56.70
3548;DHT22;1788;49.400;11.092;2022-09-24T16:50:24;18.90;56.70
3548;DHT22;1788;49.400;11.092;2022-09-24T16:52:50;18.90;56.80
3548;DHT22;1788;49.400;11.092;2022-09-24T16:55:17;18.90;56.90
3548;DHT22;1788;49.400;11.092;2022-09-24T16:57:44;18.80;57.00
3548;DHT22;1788;49.400;11.092;2022-09-24T17:02:38;18.60;57.00
3548;DHT22;1788;49.400;11.092;2022-09-24T17:05:04;18.60;57.10
3548;DHT22;1788;49.400;11.092;2022-09-24T17:07:31;18.50;57.20
3548;DHT22;1788;49.400;11.092;2022-09-24T17:09:58;18.50;57.30
3548;DHT22;1788;49.400;11.092;2022-09-24T17:12:25;18.40;57.50
3548;DHT22;1788;49.400;11.092;2022-09-24T17:14:51;18.40;57.50
3548;DHT22;1788;49.400;11.092;2022-09-24T17:17:19;18.30;57.70
3548;DHT22;1788;49.400;11.092;2022-09-24T17:19:45;18.30;57.70
3548;DHT22;1788;49.400;11.092;2022-09-24T17:22:13;18.20;58.40
3548;DHT22;1788;49.400;11.092;2022-09-24T17:24:39;18.20;57.90
3548;DHT22;1788;49.400;11.092;2022-09-24T17:27:06;18.20;58.00
3548;DHT22;1788;49.400;11.092;2022-09-24T17:29:33;18.20;57.60
3548;DHT22;1788;49.400;11.092;2022-09-24T17:31:59;18.10;58.20
3548;DHT22;1788;49.400;11.092;2022-09-24T17:34:26;18.10;58.30
3548;DHT22;1788;49.400;11.092;2022-09-24T17:36:53;18.10;58.50
3548;DHT22;1788;49.400;11.092;2022-09-24T17:39:20;18.00;58.40
3548;DHT22;1788;49.400;11.092;2022-09-24T17:41:47;18.00;58.60
3548;DHT22;1788;49.400;11.092;2022-09-24T17:44:14;17.90;58.50
3548;DHT22;1788;49.400;11.092;2022-09-24T17:46:41;17.90;58.80
3548;DHT22;1788;49.400;11.092;2022-09-24T17:49:08;17.90;58.80
3548;DHT22;1788;49.400;11.092;2022-09-24T17:51:36;17.90;59.00
3548;DHT22;1788;49.400;11.092;2022-09-24T17:54:03;17.90;59.00
3548;DHT22;1788;49.400;11.092;2022-09-24T17:56:29;17.90;59.10
3548;DHT22;1788;49.400;11.092;2022-09-24T17:58:55;17.80;59.00
3548;DHT22;1788;49.400;11.092;2022-09-24T18:01:23;17.80;59.20
3548;DHT22;1788;49.400;11.092;2022-09-24T18:06:15;17.80;59.30
3548;DHT22;1788;49.400;11.092;2022-09-24T18:08:42;17.80;59.50
3548;DHT22;1788;49.400;11.092;2022-09-24T18:11:10;17.70;59.50
3548;DHT22;1788;49.400;11.092;2022-09-24T18:13:35;17.70;59.60
3548;DHT22;1788;49.400;11.092;2022-09-24T18:16:02;17.70;59.80
3548;DHT22;1788;49.400;11.092;2022-09-24T18:18:28;17.70;60.00
3548;DHT22;1788;49.400;11.092;2022-09-24T18:20:56;17.60;60.00
3548;DHT22;1788;49.400;11.092;2022-09-24T18:23:21;17.60;60.30
3548;DHT22;1788;49.400;11.092;2022-09-24T18:25:48;17.60;60.40
3548;DHT22;1788;49.400;11.092;2022-09-24T18:28:15;17.60;60.90
3548;DHT22;1788;49.400;11.092;2022-09-24T18:30:42;17.50;60.60
3548;DHT22;1788;49.400;11.092;2022-09-24T18:33:09;17.50;61.70
3548;DHT22;1788;49.400;11.092;2022-09-24T18:35:36;17.50;61.00
3548;DHT22;1788;49.400;11.092;2022-09-24T18:38:03;17.40;61.10
3548;DHT22;1788;49.400;11.092;2022-09-24T18:40:29;17.40;61.40
3548;DHT22;1788;49.400;11.092;2022-09-24T18:42:56;17.40;61.60
3548;DHT22;1788;49.400;11.092;2022-09-24T18:45:22;17.40;61.90
3548;DHT22;1788;49.400;11.092;2022-09-24T18:47:49;17.40;62.10
3548;DHT22;1788;49.400;11.092;2022-09-24T18:50:16;17.30;62.20
3548;DHT22;1788;49.400;11.092;2022-09-24T18:52:42;17.30;62.50
3548;DHT22;1788;49.400;11.092;2022-09-24T18:55:09;17.30;62.80
3548;DHT22;1788;49.400;11.092;2022-09-24T18:57:36;17.20;63.30
3548;DHT22;1788;49.400;11.092;2022-09-24T19:00:03;17.20;64.00
3548;DHT22;1788;49.400;11.092;2022-09-24T19:02:29;17.20;63.50
3548;DHT22;1788;49.400;11.092;2022-09-24T19:04:56;17.10;63.60
3548;DHT22;1788;49.400;11.092;2022-09-24T19:07:23;17.10;63.80
3548;DHT22;1788;49.400;11.092;2022-09-24T19:09:49;17.10;64.00
3548;DHT22;1788;49.400;11.092;2022-09-24T19:12:16;17.00;64.00